Terminal Aerodrome Forecast
Issued by NWS

Home | Current Version | Previous Version | Text Only | Print | Product List | Glossary On
Versions: 1 2 3 4 5 6 7 8 9 10 11 12 13 14 15 16 17 18 19 20 21
000
FTUS43 KMKX 311754 AAA
TAFUES
TAF AMD
KUES 311754Z 3118/0118 11012KT P6SM SCT100 BKN200
     FM010300 00000KT P6SM OVC110 PROB30 0103/0109 4SM TSRA OVC025CB
     FM010900 00000KT P6SM -SHRA VCTS OVC060CB
     FM011200 15005KT 5SM -SHRA VCTS OVC025CB
     FM011600 17006KT P6SM SHRA VCTS OVC060CB=

USA.gov is the U.S. government's official web portal to all federal, state and local government web resources and services.